sensor_id;sensor_type;location;lat;lon;timestamp;pressure;altitude;pressure_sealevel;temperature;humidity
13011;BME280;6786;57.632;11.962;2023-07-31T00:00:14;99652.53;;;20.57;69.44
13011;BME280;6786;57.632;11.962;2023-07-31T00:02:42;99656.25;;;20.56;69.51
13011;BME280;6786;57.632;11.962;2023-07-31T00:05:11;99654.38;;;20.56;69.46
13011;BME280;6786;57.632;11.962;2023-07-31T00:07:39;99656.06;;;20.57;69.40
13011;BME280;6786;57.632;11.962;2023-07-31T00:10:07;99659.56;;;20.58;69.63
13011;BME280;6786;57.632;11.962;2023-07-31T00:12:36;99647.50;;;20.54;69.43
13011;BME280;6786;57.632;11.962;2023-07-31T00:15:04;99654.19;;;20.58;69.64
13011;BME280;6786;57.632;11.962;2023-07-31T00:17:34;99642.66;;;20.57;69.43
13011;BME280;6786;57.632;11.962;2023-07-31T00:20:03;99656.06;;;20.57;69.45
13011;BME280;6786;57.632;11.962;2023-07-31T00:22:31;99649.69;;;20.58;69.58
13011;BME280;6786;57.632;11.962;2023-07-31T00:24:59;99653.38;;;20.57;69.40
13011;BME280;6786;57.632;11.962;2023-07-31T00:27:27;99657.91;;;20.57;69.37
13011;BME280;6786;57.632;11.962;2023-07-31T00:29:55;99661.44;;;20.57;69.70
13011;BME280;6786;57.632;11.962;2023-07-31T00:32:23;99664.13;;;20.57;69.33
13011;BME280;6786;57.632;11.962;2023-07-31T00:34:53;99655.06;;;20.58;69.69
13011;BME280;6786;57.632;11.962;2023-07-31T00:37:21;99655.06;;;20.58;69.43
13011;BME280;6786;57.632;11.962;2023-07-31T00:39:49;99643.28;;;20.59;69.39
13011;BME280;6786;57.632;11.962;2023-07-31T00:42:17;99641.47;;;20.60;69.55
13011;BME280;6786;57.632;11.962;2023-07-31T00:44:45;99640.59;;;20.59;69.65
13011;BME280;6786;57.632;11.962;2023-07-31T00:47:13;99642.31;;;20.60;69.53
13011;BME280;6786;57.632;11.962;2023-07-31T00:49:41;99642.31;;;20.60;69.31
13011;BME280;6786;57.632;11.962;2023-07-31T00:52:11;99642.31;;;20.60;69.40
13011;BME280;6786;57.632;11.962;2023-07-31T00:54:39;99638.78;;;20.60;69.56
13011;BME280;6786;57.632;11.962;2023-07-31T00:57:07;99636.94;;;20.60;69.40
13011;BME280;6786;57.632;11.962;2023-07-31T00:59:36;99636.94;;;20.60;69.21
13011;BME280;6786;57.632;11.962;2023-07-31T01:02:04;99558.19;;;20.13;69.38
13011;BME280;6786;57.632;11.962;2023-07-31T01:04:33;99635.25;;;20.59;69.24
13011;BME280;6786;57.632;11.962;2023-07-31T01:07:07;99643.13;;;20.61;69.51
13011;BME280;6786;57.632;11.962;2023-07-31T01:09:43;99496.19;;;19.76;69.37
13011;BME280;6786;57.632;11.962;2023-07-31T01:12:14;99634.91;;;20.62;69.06
13011;BME280;6786;57.632;11.962;2023-07-31T01:14:51;99642.31;;;20.60;69.27
13011;BME280;6786;57.632;11.962;2023-07-31T01:17:19;99630.38;;;20.63;68.93
13011;BME280;6786;57.632;11.962;2023-07-31T01:19:48;99635.75;;;20.63;69.16
13011;BME280;6786;57.632;11.962;2023-07-31T01:22:31;99638.59;;;20.61;69.34
13011;BME280;6786;57.632;11.962;2023-07-31T01:25:15;99626.19;;;20.60;69.18
13011;BME280;6786;57.632;11.962;2023-07-31T01:27:53;99485.16;;;19.71;69.15
13011;BME280;6786;57.632;11.962;2023-07-31T01:30:26;99627.00;;;20.61;69.14
13011;BME280;6786;57.632;11.962;2023-07-31T01:32:56;99627.88;;;20.61;69.21
13011;BME280;6786;57.632;11.962;2023-07-31T01:35:25;99622.50;;;20.61;69.35
13011;BME280;6786;57.632;11.962;2023-07-31T01:37:53;99601.72;;;20.55;69.48
13011;BME280;6786;57.632;11.962;2023-07-31T01:40:22;99612.09;;;20.58;69.08
13011;BME280;6786;57.632;11.962;2023-07-31T01:42:51;99617.13;;;20.61;69.19
13011;BME280;6786;57.632;11.962;2023-07-31T01:45:19;99615.47;;;20.60;69.33
13011;BME280;6786;57.632;11.962;2023-07-31T01:47:47;99610.09;;;20.60;69.32
13011;BME280;6786;57.632;11.962;2023-07-31T01:50:16;99616.28;;;20.61;69.28
13011;BME280;6786;57.632;11.962;2023-07-31T01:52:44;99611.75;;;20.61;69.10
13011;BME280;6786;57.632;11.962;2023-07-31T01:55:12;99601.03;;;20.61;69.34
13011;BME280;6786;57.632;11.962;2023-07-31T01:57:40;99606.38;;;20.61;69.25
13011;BME280;6786;57.632;11.962;2023-07-31T02:00:10;99601.03;;;20.61;69.15
13011;BME280;6786;57.632;11.962;2023-07-31T02:02:38;99601.03;;;20.61;69.24
13011;BME280;6786;57.632;11.962;2023-07-31T02:05:07;99601.03;;;20.61;69.26
13011;BME280;6786;57.632;11.962;2023-07-31T02:07:35;99594.16;;;20.59;69.14
13011;BME280;6786;57.632;11.962;2023-07-31T02:10:04;99588.63;;;20.60;69.04
13011;BME280;6786;57.632;11.962;2023-07-31T02:12:32;99592.13;;;20.61;69.14
13011;BME280;6786;57.632;11.962;2023-07-31T02:15:00;99586.09;;;20.59;69.23
13011;BME280;6786;57.632;11.962;2023-07-31T02:17:29;99580.22;;;20.55;69.39
13011;BME280;6786;57.632;11.962;2023-07-31T02:19:58;99588.63;;;20.60;69.17
13011;BME280;6786;57.632;11.962;2023-07-31T02:22:26;99584.25;;;20.59;69.13
13011;BME280;6786;57.632;11.962;2023-07-31T02:24:54;99494.13;;;20.10;69.16
13011;BME280;6786;57.632;11.962;2023-07-31T02:27:22;99568.19;;;20.51;69.22
13011;BME280;6786;57.632;11.962;2023-07-31T02:29:53;99576.19;;;20.59;69.04
13011;BME280;6786;57.632;11.962;2023-07-31T02:32:22;99580.56;;;20.60;69.22
13011;BME280;6786;57.632;11.962;2023-07-31T02:34:51;99577.03;;;20.60;69.34
13011;BME280;6786;57.632;11.962;2023-07-31T02:37:19;99578.69;;;20.61;69.09
13011;BME280;6786;57.632;11.962;2023-07-31T02:39:47;99582.28;;;20.53;69.20
13011;BME280;6786;57.632;11.962;2023-07-31T02:42:16;99587.78;;;20.60;69.27
13011;BME280;6786;57.632;11.962;2023-07-31T02:44:44;99578.69;;;20.61;69.32
13011;BME280;6786;57.632;11.962;2023-07-31T02:47:12;99588.44;;;20.62;69.11
13011;BME280;6786;57.632;11.962;2023-07-31T02:49:40;99572.84;;;20.57;69.30
13011;BME280;6786;57.632;11.962;2023-07-31T02:52:09;99519.59;;;20.22;69.08
13011;BME280;6786;57.632;11.962;2023-07-31T02:54:37;99577.88;;;20.60;69.06
13011;BME280;6786;57.632;11.962;2023-07-31T02:57:05;99572.50;;;20.60;69.07
13011;BME280;6786;57.632;11.962;2023-07-31T02:59:34;99569.81;;;20.60;69.19
13011;BME280;6786;57.632;11.962;2023-07-31T03:02:02;99564.81;;;20.57;69.28
13011;BME280;6786;57.632;11.962;2023-07-31T03:04:31;99573.31;;;20.61;69.08
13011;BME280;6786;57.632;11.962;2023-07-31T03:06:59;99574.19;;;20.61;68.99
13011;BME280;6786;57.632;11.962;2023-07-31T03:09:28;99572.50;;;20.60;69.13
13011;BME280;6786;57.632;11.962;2023-07-31T03:11:56;99571.50;;;20.61;69.05
13011;BME280;6786;57.632;11.962;2023-07-31T03:14:24;99501.34;;;20.18;69.17
13011;BME280;6786;57.632;11.962;2023-07-31T03:16:53;99572.50;;;20.60;69.22
13011;BME280;6786;57.632;11.962;2023-07-31T03:19:21;99567.13;;;20.60;69.28
13011;BME280;6786;57.632;11.962;2023-07-31T03:21:49;99568.81;;;20.61;69.03
13011;BME280;6786;57.632;11.962;2023-07-31T03:24:18;99567.13;;;20.60;69.03
13011;BME280;6786;57.632;11.962;2023-07-31T03:26:47;99557.38;;;20.59;69.00
13011;BME280;6786;57.632;11.962;2023-07-31T03:29:15;99560.91;;;20.60;68.93
13011;BME280;6786;57.632;11.962;2023-07-31T03:31:43;99543.84;;;20.53;69.07
13011;BME280;6786;57.632;11.962;2023-07-31T03:34:11;99557.09;;;20.54;69.07
13011;BME280;6786;57.632;11.962;2023-07-31T03:36:39;99555.06;;;20.56;69.28
13011;BME280;6786;57.632;11.962;2023-07-31T03:39:08;99567.50;;;20.57;69.33
13011;BME280;6786;57.632;11.962;2023-07-31T03:41:36;99554.41;;;20.54;69.38
13011;BME280;6786;57.632;11.962;2023-07-31T03:44:05;99555.06;;;20.56;69.42
13011;BME280;6786;57.632;11.962;2023-07-31T03:46:34;99564.97;;;20.56;69.31
13011;BME280;6786;57.632;11.962;2023-07-31T03:49:03;99553.38;;;20.55;69.16
13011;BME280;6786;57.632;11.962;2023-07-31T03:51:31;99557.09;;;20.54;69.49
13011;BME280;6786;57.632;11.962;2023-07-31T03:53:59;99562.13;;;20.57;69.18
13011;BME280;6786;57.632;11.962;2023-07-31T03:56:27;99560.41;;;20.56;69.34
13011;BME280;6786;57.632;11.962;2023-07-31T03:58:55;99558.75;;;20.55;69.09
13011;BME280;6786;57.632;11.962;2023-07-31T04:01:26;99549.38;;;20.51;69.23
13011;BME280;6786;57.632;11.962;2023-07-31T04:03:54;99531.63;;;20.42;69.20
13011;BME280;6786;57.632;11.962;2023-07-31T04:06:22;99547.38;;;20.53;69.32
13011;BME280;6786;57.632;11.962;2023-07-31T04:08:51;99553.03;;;20.58;69.18
13011;BME280;6786;57.632;11.962;2023-07-31T04:11:19;99562.13;;;20.57;69.09
13011;BME280;6786;57.632;11.962;2023-07-31T04:13:47;99558.41;;;20.58;69.24
13011;BME280;6786;57.632;11.962;2023-07-31T04:16:15;99551.38;;;20.57;69.02
13011;BME280;6786;57.632;11.962;2023-07-31T04:18:45;99547.69;;;20.58;69.04
13011;BME280;6786;57.632;11.962;2023-07-31T04:21:13;99545.66;;;20.60;69.21
13011;BME280;6786;57.632;11.962;2023-07-31T04:23:41;99466.97;;;20.13;68.90
13011;BME280;6786;57.632;11.962;2023-07-31T04:26:09;99540.28;;;20.60;68.97
13011;BME280;6786;57.632;11.962;2023-07-31T04:28:37;99553.72;;;20.60;68.99
13011;BME280;6786;57.632;11.962;2023-07-31T04:31:05;99541.13;;;20.61;68.85
13011;BME280;6786;57.632;11.962;2023-07-31T04:33:33;99536.59;;;20.61;69.06
13011;BME280;6786;57.632;11.962;2023-07-31T04:36:03;99529.56;;;20.60;69.07
13011;BME280;6786;57.632;11.962;2023-07-31T04:38:31;99529.56;;;20.60;68.85
13011;BME280;6786;57.632;11.962;2023-07-31T04:40:59;99528.53;;;20.61;69.07
13011;BME280;6786;57.632;11.962;2023-07-31T04:43:27;99529.56;;;20.60;69.09
13011;BME280;6786;57.632;11.962;2023-07-31T04:45:56;99538.94;;;20.56;69.12
13011;BME280;6786;57.632;11.962;2023-07-31T04:48:24;99534.06;;;20.60;68.71
13011;BME280;6786;57.632;11.962;2023-07-31T04:50:53;99528.53;;;20.61;69.10
13011;BME280;6786;57.632;11.962;2023-07-31T04:53:22;99530.72;;;20.58;68.81
13011;BME280;6786;57.632;11.962;2023-07-31T04:55:50;99531.22;;;20.61;69.07
13011;BME280;6786;57.632;11.962;2023-07-31T04:58:18;99526.88;;;20.60;69.01
13011;BME280;6786;57.632;11.962;2023-07-31T05:00:46;99533.22;;;20.59;68.84
13011;BME280;6786;57.632;11.962;2023-07-31T05:03:14;99531.56;;;20.58;69.12
13011;BME280;6786;57.632;11.962;2023-07-31T05:05:43;99378.94;;;19.70;68.96
13011;BME280;6786;57.632;11.962;2023-07-31T05:08:11;99524.19;;;20.60;68.93
13011;BME280;6786;57.632;11.962;2023-07-31T05:10:40;99528.72;;;20.60;68.84
13011;BME280;6786;57.632;11.962;2023-07-31T05:13:08;99475.00;;;20.21;68.95
13011;BME280;6786;57.632;11.962;2023-07-31T05:15:37;99520.84;;;20.58;68.91
13011;BME280;6786;57.632;11.962;2023-07-31T05:18:05;99418.38;;;20.00;68.86
13011;BME280;6786;57.632;11.962;2023-07-31T05:20:33;99521.69;;;20.59;69.19
13011;BME280;6786;57.632;11.962;2023-07-31T05:23:01;99517.78;;;20.61;68.76
13011;BME280;6786;57.632;11.962;2023-07-31T05:25:29;99507.72;;;20.63;68.67
13011;BME280;6786;57.632;11.962;2023-07-31T05:27:59;99512.09;;;20.56;68.95
13011;BME280;6786;57.632;11.962;2023-07-31T05:30:27;99513.97;;;20.56;69.15
13011;BME280;6786;57.632;11.962;2023-07-31T05:32:57;99515.47;;;20.58;69.06
13011;BME280;6786;57.632;11.962;2023-07-31T05:35:25;99512.78;;;20.58;69.06
13011;BME280;6786;57.632;11.962;2023-07-31T05:37:53;99507.41;;;20.58;68.71
13011;BME280;6786;57.632;11.962;2023-07-31T05:40:21;99510.09;;;20.58;68.78
13011;BME280;6786;57.632;11.962;2023-07-31T05:42:49;99496.56;;;20.52;68.95
13011;BME280;6786;57.632;11.962;2023-07-31T05:45:19;99513.63;;;20.59;68.77
13011;BME280;6786;57.632;11.962;2023-07-31T05:47:47;99495.03;;;20.49;68.99
13011;BME280;6786;57.632;11.962;2023-07-31T05:50:15;99444.19;;;20.17;69.02
13011;BME280;6786;57.632;11.962;2023-07-31T05:52:43;99498.34;;;20.59;69.19
13011;BME280;6786;57.632;11.962;2023-07-31T05:55:11;99503.69;;;20.59;68.74
13011;BME280;6786;57.632;11.962;2023-07-31T05:57:39;99506.38;;;20.59;68.99
13011;BME280;6786;57.632;11.962;2023-07-31T06:00:09;99501.03;;;20.59;68.92
13011;BME280;6786;57.632;11.962;2023-07-31T06:02:39;99500.91;;;20.53;68.86
13011;BME280;6786;57.632;11.962;2023-07-31T06:05:07;99508.09;;;20.60;69.03
13011;BME280;6786;57.632;11.962;2023-07-31T06:07:36;99516.13;;;20.60;69.01
13011;BME280;6786;57.632;11.962;2023-07-31T06:10:05;99515.13;;;20.61;69.10
13011;BME280;6786;57.632;11.962;2023-07-31T06:12:33;99508.09;;;20.60;68.85
13011;BME280;6786;57.632;11.962;2023-07-31T06:15:02;99504.72;;;20.58;69.10
13011;BME280;6786;57.632;11.962;2023-07-31T06:17:30;99433.63;;;20.16;68.94
13011;BME280;6786;57.632;11.962;2023-07-31T06:19:59;99510.78;;;20.60;69.10
13011;BME280;6786;57.632;11.962;2023-07-31T06:22:28;99509.75;;;20.61;68.96
13011;BME280;6786;57.632;11.962;2023-07-31T06:24:56;99510.78;;;20.60;69.15
13011;BME280;6786;57.632;11.962;2023-07-31T06:27:24;99508.09;;;20.60;69.24
13011;BME280;6786;57.632;11.962;2023-07-31T06:29:52;99490.63;;;20.56;68.97
13011;BME280;6786;57.632;11.962;2023-07-31T06:32:21;99493.81;;;20.60;68.92
13011;BME280;6786;57.632;11.962;2023-07-31T06:34:49;99486.59;;;20.60;69.04
13011;BME280;6786;57.632;11.962;2023-07-31T06:37:19;99394.91;;;20.02;68.66
13011;BME280;6786;57.632;11.962;2023-07-31T06:39:47;99498.66;;;20.64;68.95
13011;BME280;6786;57.632;11.962;2023-07-31T06:42:15;99507.72;;;20.63;68.70
13011;BME280;6786;57.632;11.962;2023-07-31T06:44:43;99486.28;;;20.55;69.04
13011;BME280;6786;57.632;11.962;2023-07-31T06:47:11;99498.69;;;20.56;68.99
13011;BME280;6786;57.632;11.962;2023-07-31T06:49:39;99499.72;;;20.55;69.07
13011;BME280;6786;57.632;11.962;2023-07-31T06:52:07;99497.69;;;20.57;68.94
13011;BME280;6786;57.632;11.962;2023-07-31T06:54:37;99431.13;;;20.14;69.15
13011;BME280;6786;57.632;11.962;2023-07-31T06:57:06;99500.03;;;20.60;68.80
13011;BME280;6786;57.632;11.962;2023-07-31T06:59:34;99504.38;;;20.61;68.86
13011;BME280;6786;57.632;11.962;2023-07-31T07:02:02;99507.06;;;20.61;69.08
13011;BME280;6786;57.632;11.962;2023-07-31T07:04:32;99504.38;;;20.61;68.96
13011;BME280;6786;57.632;11.962;2023-07-31T07:07:00;99495.00;;;20.57;69.34
13011;BME280;6786;57.632;11.962;2023-07-31T07:09:28;99504.72;;;20.58;68.91
13011;BME280;6786;57.632;11.962;2023-07-31T07:11:58;99508.72;;;20.62;69.16
13011;BME280;6786;57.632;11.962;2023-07-31T07:14:26;99508.56;;;20.64;68.81
13011;BME280;6786;57.632;11.962;2023-07-31T07:16:54;99508.09;;;20.60;68.94
13011;BME280;6786;57.632;11.962;2023-07-31T07:19:22;99504.72;;;20.58;69.18
13011;BME280;6786;57.632;11.962;2023-07-31T07:21:50;99505.91;;;20.56;69.17
13011;BME280;6786;57.632;11.962;2023-07-31T07:24:18;99506.38;;;20.59;69.29
13011;BME280;6786;57.632;11.962;2023-07-31T07:26:46;99501.03;;;20.59;69.19
13011;BME280;6786;57.632;11.962;2023-07-31T07:29:16;99489.66;;;20.57;69.25
13011;BME280;6786;57.632;11.962;2023-07-31T07:31:44;99495.00;;;20.57;69.17
13011;BME280;6786;57.632;11.962;2023-07-31T07:34:13;99494.00;;;20.58;68.90
13011;BME280;6786;57.632;11.962;2023-07-31T07:36:41;99494.00;;;20.58;69.24
13011;BME280;6786;57.632;11.962;2023-07-31T07:39:10;99483.25;;;20.58;68.95
13011;BME280;6786;57.632;11.962;2023-07-31T07:41:38;99486.09;;;20.57;69.33
13011;BME280;6786;57.632;11.962;2023-07-31T07:44:07;99495.66;;;20.59;69.20
13011;BME280;6786;57.632;11.962;2023-07-31T07:46:37;99474.53;;;20.56;69.20
13011;BME280;6786;57.632;11.962;2023-07-31T07:49:06;99491.97;;;20.60;69.00
13011;BME280;6786;57.632;11.962;2023-07-31T07:51:34;99484.91;;;20.59;69.18
13011;BME280;6786;57.632;11.962;2023-07-31T07:54:02;99486.59;;;20.60;69.00
13011;BME280;6786;57.632;11.962;2023-07-31T07:56:30;99493.63;;;20.61;69.19
13011;BME280;6786;57.632;11.962;2023-07-31T07:58:58;99497.00;;;20.63;68.90
13011;BME280;6786;57.632;11.962;2023-07-31T08:01:27;99490.94;;;20.61;69.30
13011;BME280;6786;57.632;11.962;2023-07-31T08:03:57;99396.59;;;20.03;69.09
13011;BME280;6786;57.632;11.962;2023-07-31T08:06:26;99497.34;;;20.60;69.23
13011;BME280;6786;57.632;11.962;2023-07-31T08:08:54;99486.59;;;20.60;69.03
13011;BME280;6786;57.632;11.962;2023-07-31T08:11:22;99486.59;;;20.60;68.89
13011;BME280;6786;57.632;11.962;2023-07-31T08:13:50;99470.19;;;20.55;68.82
13011;BME280;6786;57.632;11.962;2023-07-31T08:16:18;99482.91;;;20.61;69.17
13011;BME280;6786;57.632;11.962;2023-07-31T08:18:46;99481.25;;;20.60;69.20
13011;BME280;6786;57.632;11.962;2023-07-31T08:21:17;99477.53;;;20.61;69.17
13011;BME280;6786;57.632;11.962;2023-07-31T08:23:45;99476.50;;;20.62;68.94
13011;BME280;6786;57.632;11.962;2023-07-31T08:26:15;99482.91;;;20.61;69.28
13011;BME280;6786;57.632;11.962;2023-07-31T08:28:43;99484.56;;;20.62;68.80
13011;BME280;6786;57.632;11.962;2023-07-31T08:31:11;99479.19;;;20.62;68.84
13011;BME280;6786;57.632;11.962;2023-07-31T08:33:39;99473.34;;;20.59;69.03
13011;BME280;6786;57.632;11.962;2023-07-31T08:36:08;99481.06;;;20.62;68.92
13011;BME280;6786;57.632;11.962;2023-07-31T08:38:37;99471.31;;;20.61;69.21
13011;BME280;6786;57.632;11.962;2023-07-31T08:41:05;99473.00;;;20.62;69.19
13011;BME280;6786;57.632;11.962;2023-07-31T08:43:34;99470.50;;;20.60;69.05
13011;BME280;6786;57.632;11.962;2023-07-31T08:46:04;99464.28;;;20.60;69.23
13011;BME280;6786;57.632;11.962;2023-07-31T08:48:33;99468.00;;;20.59;68.98
13011;BME280;6786;57.632;11.962;2023-07-31T08:51:03;99462.44;;;20.60;68.98
13011;BME280;6786;57.632;11.962;2023-07-31T08:53:31;99465.13;;;20.60;69.01
13011;BME280;6786;57.632;11.962;2023-07-31T08:56:01;99465.13;;;20.60;69.13
13011;BME280;6786;57.632;11.962;2023-07-31T08:58:31;99398.94;;;20.14;69.08
13011;BME280;6786;57.632;11.962;2023-07-31T09:01:01;99453.06;;;20.56;69.40
13011;BME280;6786;57.632;11.962;2023-07-31T09:03:33;99458.06;;;20.59;69.21
13011;BME280;6786;57.632;11.962;2023-07-31T09:06:02;99451.03;;;20.58;68.94
13011;BME280;6786;57.632;11.962;2023-07-31T09:08:33;99367.44;;;20.00;69.08
13011;BME280;6786;57.632;11.962;2023-07-31T09:11:02;99449.72;;;20.54;68.92
13011;BME280;6786;57.632;11.962;2023-07-31T09:13:32;99450.38;;;20.56;69.17
13011;BME280;6786;57.632;11.962;2023-07-31T09:16:00;99456.75;;;20.55;69.29
13011;BME280;6786;57.632;11.962;2023-07-31T09:18:28;99454.75;;;20.57;69.37
13011;BME280;6786;57.632;11.962;2023-07-31T09:21:03;99452.53;;;20.61;69.05
13011;BME280;6786;57.632;11.962;2023-07-31T09:23:41;99436.34;;;20.46;69.20
13011;BME280;6786;57.632;11.962;2023-07-31T09:26:28;99445.66;;;20.58;69.44
13011;BME280;6786;57.632;11.962;2023-07-31T09:28:57;99450.19;;;20.58;69.03
13011;BME280;6786;57.632;11.962;2023-07-31T09:31:32;99292.53;;;19.60;69.33
13011;BME280;6786;57.632;11.962;2023-07-31T09:34:01;99447.69;;;20.56;69.23
13011;BME280;6786;57.632;11.962;2023-07-31T09:36:29;99445.38;;;20.53;69.32
13011;BME280;6786;57.632;11.962;2023-07-31T09:39:02;99438.03;;;20.47;69.10
13011;BME280;6786;57.632;11.962;2023-07-31T09:41:36;99455.09;;;20.54;69.45
13011;BME280;6786;57.632;11.962;2023-07-31T09:44:05;99456.75;;;20.55;69.49
13011;BME280;6786;57.632;11.962;2023-07-31T09:46:35;99450.53;;;20.55;69.32
13011;BME280;6786;57.632;11.962;2023-07-31T09:49:08;99446.03;;;20.55;69.21
13011;BME280;6786;57.632;11.962;2023-07-31T09:51:38;99445.16;;;20.55;69.25
13011;BME280;6786;57.632;11.962;2023-07-31T09:54:10;99450.53;;;20.55;69.41
13011;BME280;6786;57.632;11.962;2023-07-31T09:56:43;99442.31;;;20.56;69.21
13011;BME280;6786;57.632;11.962;2023-07-31T09:59:13;99436.94;;;20.56;69.38
13011;BME280;6786;57.632;11.962;2023-07-31T10:01:42;99450.19;;;20.58;69.17
13011;BME280;6786;57.632;11.962;2023-07-31T10:04:11;99437.97;;;20.55;69.22
13011;BME280;6786;57.632;11.962;2023-07-31T10:06:40;99436.94;;;20.56;69.46
13011;BME280;6786;57.632;11.962;2023-07-31T10:09:12;99439.34;;;20.51;69.48
13011;BME280;6786;57.632;11.962;2023-07-31T10:11:47;99448.69;;;20.55;69.46
13011;BME280;6786;57.632;11.962;2023-07-31T10:14:20;99449.38;;;20.57;69.18
13011;BME280;6786;57.632;11.962;2023-07-31T10:16:49;99432.94;;;20.52;69.34
13011;BME280;6786;57.632;11.962;2023-07-31T10:19:17;99443.34;;;20.55;69.29
13011;BME280;6786;57.632;11.962;2023-07-31T10:21:48;99439.44;;;20.58;69.13
13011;BME280;6786;57.632;11.962;2023-07-31T10:24:16;99447.69;;;20.56;69.32
13011;BME280;6786;57.632;11.962;2023-07-31T10:26:47;99438.63;;;20.57;69.11
13011;BME280;6786;57.632;11.962;2023-07-31T10:29:16;99432.44;;;20.57;69.33
13011;BME280;6786;57.632;11.962;2023-07-31T10:31:46;99434.09;;;20.58;69.10
13011;BME280;6786;57.632;11.962;2023-07-31T10:34:15;99402.81;;;20.42;69.46
13011;BME280;6786;57.632;11.962;2023-07-31T10:36:43;99422.53;;;20.57;69.12
13011;BME280;6786;57.632;11.962;2023-07-31T10:39:35;99418.81;;;20.58;69.16
13011;BME280;6786;57.632;11.962;2023-07-31T10:42:13;99405.81;;;20.47;69.48
13011;BME280;6786;57.632;11.962;2023-07-31T10:44:44;99413.81;;;20.55;69.27
13011;BME280;6786;57.632;11.962;2023-07-31T10:47:14;99417.16;;;20.57;69.33
13011;BME280;6786;57.632;11.962;2023-07-31T10:49:45;99341.22;;;20.18;69.11
13011;BME280;6786;57.632;11.962;2023-07-31T10:52:13;99403.06;;;20.55;69.38
13011;BME280;6786;57.632;11.962;2023-07-31T10:54:41;99406.78;;;20.54;69.38
13011;BME280;6786;57.632;11.962;2023-07-31T10:57:20;99351.63;;;20.13;69.44
13011;BME280;6786;57.632;11.962;2023-07-31T10:59:49;99337.91;;;20.08;69.33
13011;BME280;6786;57.632;11.962;2023-07-31T11:02:26;99401.41;;;20.54;69.71
13011;BME280;6786;57.632;11.962;2023-07-31T11:05:06;99394.38;;;20.53;69.66
13011;BME280;6786;57.632;11.962;2023-07-31T11:07:47;99325.31;;;20.09;69.68
13011;BME280;6786;57.632;11.962;2023-07-31T11:10:18;99381.34;;;20.42;69.65
13011;BME280;6786;57.632;11.962;2023-07-31T11:12:48;99395.03;;;20.55;69.57
13011;BME280;6786;57.632;11.962;2023-07-31T11:15:17;99324.00;;;20.05;69.49
13011;BME280;6786;57.632;11.962;2023-07-31T11:17:45;99403.06;;;20.55;69.46
13011;BME280;6786;57.632;11.962;2023-07-31T11:20:13;99317.09;;;20.10;69.34
13011;BME280;6786;57.632;11.962;2023-07-31T11:22:41;99323.66;;;20.08;69.49
13011;BME280;6786;57.632;11.962;2023-07-31T11:25:09;99398.56;;;20.56;69.40
13011;BME280;6786;57.632;11.962;2023-07-31T11:27:39;99396.03;;;20.54;69.69
13011;BME280;6786;57.632;11.962;2023-07-31T11:30:09;99400.56;;;20.54;69.40
13011;BME280;6786;57.632;11.962;2023-07-31T11:32:38;99398.56;;;20.56;69.50
13011;BME280;6786;57.632;11.962;2023-07-31T11:35:06;99397.72;;;20.55;69.76
13011;BME280;6786;57.632;11.962;2023-07-31T11:37:41;99400.38;;;20.55;69.45
13011;BME280;6786;57.632;11.962;2023-07-31T11:40:11;99365.09;;;20.36;69.57
13011;BME280;6786;57.632;11.962;2023-07-31T11:42:39;99384.72;;;20.44;69.55
13011;BME280;6786;57.632;11.962;2023-07-31T11:45:09;99397.72;;;20.55;69.74
13011;BME280;6786;57.632;11.962;2023-07-31T11:47:37;99397.72;;;20.55;69.42
13011;BME280;6786;57.632;11.962;2023-07-31T11:50:10;99388.00;;;20.54;69.75
13011;BME280;6786;57.632;11.962;2023-07-31T11:52:41;99393.19;;;20.56;69.71
13011;BME280;6786;57.632;11.962;2023-07-31T11:55:12;99404.72;;;20.56;69.62
13011;BME280;6786;57.632;11.962;2023-07-31T11:57:42;99330.22;;;20.05;69.61
13011;BME280;6786;57.632;11.962;2023-07-31T12:00:14;99390.69;;;20.54;69.64
13011;BME280;6786;57.632;11.962;2023-07-31T12:02:44;99390.69;;;20.54;69.48
13011;BME280;6786;57.632;11.962;2023-07-31T12:05:13;99389.00;;;20.53;69.71
13011;BME280;6786;57.632;11.962;2023-07-31T12:07:47;99389.00;;;20.53;69.79
13011;BME280;6786;57.632;11.962;2023-07-31T12:10:23;99368.59;;;20.44;69.51
13011;BME280;6786;57.632;11.962;2023-07-31T12:13:03;99385.66;;;20.51;69.78
13011;BME280;6786;57.632;11.962;2023-07-31T12:15:37;99387.31;;;20.52;69.87
13011;BME280;6786;57.632;11.962;2023-07-31T12:18:07;99373.09;;;20.52;69.82
13011;BME280;6786;57.632;11.962;2023-07-31T12:20:40;99367.59;;;20.45;69.67
13011;BME280;6786;57.632;11.962;2023-07-31T12:23:13;99312.06;;;20.07;69.72
13011;BME280;6786;57.632;11.962;2023-07-31T12:25:42;99371.22;;;20.52;69.57
13011;BME280;6786;57.632;11.962;2023-07-31T12:28:10;99385.31;;;20.54;69.71
13011;BME280;6786;57.632;11.962;2023-07-31T12:30:40;99384.47;;;20.54;69.72
13011;BME280;6786;57.632;11.962;2023-07-31T12:33:14;99373.72;;;20.54;69.71
13011;BME280;6786;57.632;11.962;2023-07-31T12:35:44;99380.97;;;20.53;69.76
13011;BME280;6786;57.632;11.962;2023-07-31T12:38:13;99380.97;;;20.53;69.60
13011;BME280;6786;57.632;11.962;2023-07-31T12:40:42;99379.94;;;20.54;69.51
13011;BME280;6786;57.632;11.962;2023-07-31T12:43:10;99371.03;;;20.54;69.84
13011;BME280;6786;57.632;11.962;2023-07-31T12:45:39;99372.91;;;20.53;69.46
13011;BME280;6786;57.632;11.962;2023-07-31T12:48:08;99369.22;;;20.54;69.72
13011;BME280;6786;57.632;11.962;2023-07-31T12:50:36;99369.22;;;20.54;69.80
13011;BME280;6786;57.632;11.962;2023-07-31T12:53:06;99363.84;;;20.54;69.57
13011;BME280;6786;57.632;11.962;2023-07-31T12:55:34;99358.47;;;20.54;69.44
13011;BME280;6786;57.632;11.962;2023-07-31T12:58:03;99356.50;;;20.48;69.59
13011;BME280;6786;57.632;11.962;2023-07-31T13:00:31;99338.78;;;20.39;69.92
13011;BME280;6786;57.632;11.962;2023-07-31T13:03:01;99353.09;;;20.54;69.56
13011;BME280;6786;57.632;11.962;2023-07-31T13:05:30;99355.97;;;20.53;69.83
13011;BME280;6786;57.632;11.962;2023-07-31T13:07:58;99357.63;;;20.54;69.99
13011;BME280;6786;57.632;11.962;2023-07-31T13:10:27;99358.47;;;20.54;69.82